Time;durP1;ratioP1;P1;durP2;ratioP2;P2;SDS_P1;SDS_P2;PMS_P1;PMS_P2;Temp;Humidity;BMP_temperature;BMP_pressure;BME280_temperature;BME280_humidity;BME280_pressure;Samples;Min_cycle;Max_cycle;Signal;HPM_P1;HPM_P2
2024/01/10 00:01:59;;;;;;;13.32;5.75;;;-4.50;99.90;;;-5.82;100.00;98036.94;4922857;28;20027;-34
2024/01/10 00:04:25;;;;;;;17.40;6.63;;;-4.50;99.90;;;-5.82;100.00;98026.66;4927872;28;20031;-35
2024/01/10 00:06:50;;;;;;;20.13;6.57;;;-4.50;99.90;;;-5.80;100.00;98027.59;4930854;28;20038;-34
2024/01/10 00:09:16;;;;;;;17.35;6.85;;;-4.50;99.90;;;-5.79;100.00;98023.34;4932205;28;20035;-34
2024/01/10 00:11:42;;;;;;;15.73;6.60;;;-4.50;99.90;;;-5.81;100.00;98028.44;4924106;28;20046;-34
2024/01/10 00:14:07;;;;;;;15.27;6.57;;;-4.50;99.90;;;-5.80;100.00;98019.03;4935066;28;20389;-35
2024/01/10 00:16:33;;;;;;;12.77;5.25;;;-4.50;99.90;;;-5.81;100.00;98027.56;4936009;28;20031;-35
2024/01/10 00:18:59;;;;;;;14.35;6.57;;;-4.50;99.90;;;-5.82;100.00;98030.94;4937775;28;20063;-34
2024/01/10 00:21:25;;;;;;;13.10;5.80;;;-4.50;99.90;;;-5.78;100.00;98030.22;4930704;28;20047;-34
2024/01/10 00:23:50;;;;;;;14.75;6.72;;;-4.50;99.90;;;-5.79;100.00;98026.78;4931821;28;20031;-34
2024/01/10 00:26:16;;;;;;;19.50;6.38;;;-4.50;99.90;;;-5.81;100.00;98022.44;4933508;28;20531;-34
2024/01/10 00:28:42;;;;;;;14.23;6.30;;;-4.50;99.90;;;-5.88;100.00;98005.03;4935011;28;20049;-34
2024/01/10 00:31:08;;;;;;;14.13;6.05;;;-4.50;99.90;;;-5.79;100.00;98019.09;4930162;28;20464;-34
2024/01/10 00:33:34;;;;;;;13.02;5.97;;;-4.50;99.90;;;-5.76;100.00;98020.88;4933753;28;20098;-34
2024/01/10 00:36:00;;;;;;;15.00;5.93;;;-4.50;99.90;;;-5.75;100.00;98020.06;4932377;28;20070;-34
2024/01/10 00:38:25;;;;;;;13.45;6.43;;;-4.50;99.90;;;-5.75;100.00;98017.50;4936249;28;20400;-34
2024/01/10 00:40:51;;;;;;;14.93;6.35;;;-4.40;99.90;;;-5.72;100.00;98016.72;4928860;28;20027;-34
2024/01/10 00:43:17;;;;;;;12.75;6.15;;;-4.50;99.90;;;-5.74;100.00;98008.97;4932221;28;20078;-34
2024/01/10 00:45:43;;;;;;;14.00;6.07;;;-4.40;99.90;;;-5.74;100.00;98008.97;4933945;28;20546;-34
2024/01/10 00:48:08;;;;;;;14.15;6.65;;;-4.40;99.90;;;-5.75;100.00;98012.34;4934259;28;20046;-34
2024/01/10 00:50:34;;;;;;;14.68;6.65;;;-4.50;99.90;;;-5.76;100.00;98021.78;4933748;28;20035;-34
2024/01/10 00:53:00;;;;;;;14.18;6.20;;;-4.50;99.90;;;-5.77;100.00;98011.44;4935965;28;20038;-35
2024/01/10 00:55:25;;;;;;;18.70;7.07;;;-4.50;99.90;;;-5.76;100.00;98016.63;4929749;28;20042;-34
2024/01/10 00:57:51;;;;;;;16.88;6.28;;;-4.50;99.90;;;-5.80;100.00;98011.31;4939302;28;20086;-34
2024/01/10 01:00:17;;;;;;;13.48;6.35;;;-4.50;99.90;;;-5.82;100.00;98007.81;4930749;28;20534;-34
2024/01/10 01:02:42;;;;;;;16.60;6.72;;;-4.50;99.90;;;-5.80;100.00;98009.59;4931792;28;20158;-34
2024/01/10 01:05:08;;;;;;;16.05;6.35;;;-4.50;99.90;;;-5.81;100.00;98012.16;4936865;28;20475;-34
2024/01/10 01:07:34;;;;;;;14.98;6.13;;;-4.50;99.90;;;-5.83;100.00;98012.09;4933419;28;20024;-34
2024/01/10 01:10:00;;;;;;;17.15;6.50;;;-4.50;99.90;;;-5.86;100.00;98013.66;4928769;28;20039;-35
2024/01/10 01:12:26;;;;;;;20.33;6.85;;;-4.60;99.90;;;-5.92;100.00;98011.75;4933438;28;20054;-34
2024/01/10 01:14:52;;;;;;;18.52;6.47;;;-4.60;99.90;;;-5.92;100.00;98005.72;4934835;28;20040;-34
2024/01/10 01:17:17;;;;;;;18.02;6.93;;;-4.60;99.90;;;-5.93;100.00;98020.25;4928221;28;20054;-35
2024/01/10 01:19:43;;;;;;;16.05;6.75;;;-4.60;99.90;;;-5.87;100.00;98017.03;4929238;28;20439;-34
2024/01/10 01:22:09;;;;;;;13.23;5.75;;;-4.60;99.90;;;-5.86;100.00;98017.09;4922909;28;20067;-34
2024/01/10 01:24:34;;;;;;;13.68;6.03;;;-4.60;99.90;;;-5.86;100.00;98014.53;4926468;28;20031;-34
2024/01/10 01:27:00;;;;;;;17.02;6.55;;;-4.50;99.90;;;-5.77;100.00;98022.56;4929450;28;20131;-34
2024/01/10 01:29:26;;;;;;;16.92;6.75;;;-4.50;99.90;;;-5.72;100.00;98025.31;4926049;28;20031;-34
2024/01/10 01:31:53;;;;;;;15.07;6.97;;;-4.50;99.90;;;-5.67;100.00;98022.91;4927889;28;20035;-34
2024/01/10 01:34:19;;;;;;;17.38;6.47;;;-4.40;99.90;;;-5.64;100.00;98020.47;4926500;28;20035;-35
2024/01/10 01:36:45;;;;;;;14.05;6.50;;;-4.40;99.90;;;-5.60;100.00;98024.88;4929285;28;20661;-33
2024/01/10 01:39:13;;;;;;;14.13;6.43;;;-4.30;99.90;;;-5.57;100.00;98019.88;4929572;28;20375;-34
2024/01/10 01:41:39;;;;;;;19.45;6.70;;;-4.30;99.90;;;-5.47;98.81;98021.06;4926011;28;20039;-34
2024/01/10 01:44:05;;;;;;;13.13;5.93;;;-4.20;99.90;;;-5.45;98.55;98019.44;4928816;28;20073;-34
2024/01/10 01:46:32;;;;;;;17.98;7.30;;;-4.20;99.90;;;-5.43;99.40;98021.25;4930742;28;20110;-34
2024/01/10 01:48:59;;;;;;;17.35;6.93;;;-4.20;99.90;;;-5.41;100.00;98017.03;4931309;28;20039;-34
2024/01/10 01:51:26;;;;;;;15.73;6.82;;;-4.20;99.90;;;-5.44;100.00;98011.75;4930189;28;20038;-34
2024/01/10 01:53:53;;;;;;;15.25;6.72;;;-4.20;99.90;;;-5.53;100.00;98002.88;4932107;28;20470;-34
2024/01/10 01:56:19;;;;;;;15.88;6.88;;;-4.10;99.90;;;-5.46;100.00;98015.97;4929811;28;20035;-34
2024/01/10 01:58:47;;;;;;;14.30;6.97;;;-4.10;99.90;;;-5.40;100.00;98023.03;4933897;28;20034;-34
2024/01/10 02:01:12;;;;;;;15.18;6.72;;;-4.10;99.90;;;-5.41;100.00;98016.16;4943699;28;20035;-34
2024/01/10 02:03:38;;;;;;;21.60;7.35;;;-4.10;99.90;;;-5.49;100.00;98000.47;4933603;28;20054;-34
2024/01/10 02:06:04;;;;;;;16.52;6.72;;;-4.10;99.90;;;-5.44;100.00;98010.91;4932226;28;20051;-34
2024/01/10 02:08:34;;;;;;;15.93;6.60;;;-4.10;99.90;;;-5.42;100.00;98016.97;4932358;28;20051;-34
2024/01/10 02:11:02;;;;;;;13.23;6.22;;;-4.20;99.90;;;-5.42;100.00;98020.44;4930154;28;20756;-34
2024/01/10 02:13:29;;;;;;;16.25;6.80;;;-4.10;99.90;;;-5.47;100.00;98009.09;4931326;28;20058;-34
2024/01/10 02:15:55;;;;;;;14.35;6.60;;;-4.20;99.90;;;-5.46;100.00;98002.25;4933369;28;20484;-34
2024/01/10 02:18:21;;;;;;;13.73;6.63;;;-4.20;99.90;;;-5.48;100.00;98009.91;4933337;28;20066;-35
2024/01/10 02:20:46;;;;;;;15.52;6.55;;;-4.20;99.90;;;-5.54;100.00;97998.53;4932643;28;20039;-34
2024/01/10 02:23:13;;;;;;;15.45;6.30;;;-4.20;99.90;;;-5.54;100.00;97999.44;4958522;23;20033;-35
2024/01/10 02:25:40;;;;;;;12.75;5.97;;;-4.20;99.90;;;-5.54;100.00;98001.09;4990208;28;20037;-35
2024/01/10 02:28:06;;;;;;;16.02;6.55;;;-4.30;99.90;;;-5.62;100.00;97987.97;4990444;28;20479;-36
2024/01/10 02:30:33;;;;;;;14.65;6.10;;;-4.30;99.90;;;-5.67;100.00;97986.94;4979304;28;20034;-37
2024/01/10 02:32:59;;;;;;;14.07;6.10;;;-4.40;99.90;;;-5.73;100.00;97995.31;4971230;28;20034;-37
2024/01/10 02:35:24;;;;;;;14.15;6.07;;;-4.40;99.90;;;-5.75;100.00;98002.09;4969990;28;20038;-36
2024/01/10 02:37:51;;;;;;;16.00;6.20;;;-4.50;99.90;;;-5.82;100.00;97987.25;4975263;28;20027;-36
2024/01/10 02:40:17;;;;;;;13.77;5.65;;;-4.50;99.90;;;-5.78;100.00;97989.13;4970377;28;20512;-37
2024/01/10 02:42:43;;;;;;;14.38;6.38;;;-4.50;99.90;;;-5.79;100.00;97987.38;4970510;28;20034;-36
2024/01/10 02:45:09;;;;;;;16.13;6.80;;;-4.60;99.90;;;-5.85;100.00;97992.28;4969365;28;20038;-36
2024/01/10 02:47:36;;;;;;;15.02;5.60;;;-4.60;99.90;;;-5.89;100.00;97991.28;4977180;28;20057;-37
2024/01/10 02:50:03;;;;;;;17.50;6.35;;;-4.60;99.90;;;-5.93;100.00;97989.44;4975841;28;20483;-37
2024/01/10 02:52:29;;;;;;;10.55;5.38;;;-4.60;99.90;;;-6.02;100.00;97979.72;4967602;28;20035;-37
2024/01/10 02:54:55;;;;;;;14.40;5.80;;;-4.70;99.90;;;-6.01;100.00;97986.63;4977655;28;20132;-36
2024/01/10 02:57:21;;;;;;;11.65;5.75;;;-4.70;99.90;;;-6.03;100.00;97987.38;4972922;28;20034;-36
2024/01/10 02:59:46;;;;;;;15.07;6.05;;;-4.80;99.90;;;-6.06;100.00;97983.00;4970921;28;20413;-36
2024/01/10 03:02:12;;;;;;;13.63;5.90;;;-4.70;99.90;;;-6.02;100.00;97981.44;4970299;28;20029;-36
2024/01/10 03:04:38;;;;;;;15.15;6.07;;;-4.80;99.90;;;-6.02;100.00;97982.28;4975238;28;20049;-36
2024/01/10 03:07:03;;;;;;;14.05;5.60;;;-4.70;99.90;;;-5.96;100.00;97979.97;4973734;28;20044;-36
2024/01/10 03:09:29;;;;;;;16.92;5.50;;;-4.70;99.90;;;-5.92;100.00;97980.94;4970574;28;20046;-35
2024/01/10 03:11:55;;;;;;;12.10;5.32;;;-4.70;99.90;;;-5.82;100.00;97977.00;4977451;28;20034;-35
2024/01/10 03:14:21;;;;;;;12.65;5.63;;;-4.60;99.90;;;-5.93;100.00;97950.03;4958339;28;20034;-36
2024/01/10 03:16:48;;;;;;;13.18;5.25;;;-4.50;99.90;;;-5.66;100.00;97971.56;4952373;28;20413;-36
2024/01/10 03:19:13;;;;;;;15.68;5.63;;;-4.40;99.90;;;-5.56;100.00;97973.66;4968198;28;20030;-36
2024/01/10 03:21:39;;;;;;;15.40;5.60;;;-4.30;99.90;;;-5.65;100.00;97944.19;4969907;28;20037;-35
2024/01/10 03:24:05;;;;;;;14.77;6.05;;;-4.20;99.90;;;-5.42;100.00;97971.59;4972336;28;20510;-35
2024/01/10 03:26:31;;;;;;;12.63;5.72;;;-4.20;99.90;;;-5.36;100.00;97970.94;4972064;28;20474;-36
2024/01/10 03:28:57;;;;;;;13.75;5.78;;;-4.10;99.90;;;-5.37;100.00;97948.59;4972956;28;20045;-35
2024/01/10 03:31:23;;;;;;;13.43;6.28;;;-4.00;99.90;;;-5.27;100.00;97957.50;4969844;28;20038;-36
2024/01/10 03:33:49;;;;;;;15.73;5.88;;;-4.00;99.90;;;-5.22;100.00;97963.69;4973300;28;20061;-36
2024/01/10 03:36:18;;;;;;;15.00;5.88;;;-4.00;99.90;;;-5.13;97.22;97957.97;4967794;28;20038;-35
2024/01/10 03:38:44;;;;;;;16.17;6.07;;;-3.90;99.90;;;-5.11;98.37;97969.19;4968624;28;20451;-36
2024/01/10 03:41:17;;;;;;;14.60;4.93;;;-3.80;99.90;;;-5.06;99.23;97965.06;4973379;28;20466;-36
2024/01/10 03:43:43;;;;;;;16.55;6.95;;;-3.80;99.90;;;-4.97;99.28;97967.97;4970021;28;20022;-35
2024/01/10 03:46:10;;;;;;;14.13;6.10;;;-3.80;99.90;;;-4.94;98.79;97959.47;4973466;28;20027;-36
2024/01/10 03:48:37;;;;;;;14.32;6.28;;;-3.70;99.90;;;-4.93;99.18;97962.09;4963365;28;20045;-36
2024/01/10 03:51:03;;;;;;;18.80;6.18;;;-3.70;99.90;;;-4.96;98.03;97946.53;4968287;28;20975;-36
2024/01/10 03:53:29;;;;;;;14.15;6.25;;;-3.60;99.90;;;-4.90;98.13;97961.28;4969818;28;20438;-36
2024/01/10 03:55:55;;;;;;;15.85;5.93;;;-3.60;99.90;;;-4.83;99.53;97973.53;4966287;28;21276;-36
2024/01/10 03:58:21;;;;;;;12.95;6.20;;;-3.60;99.90;;;-4.89;100.00;97955.34;4974244;28;20041;-36
2024/01/10 04:00:46;;;;;;;12.13;6.55;;;-3.60;99.90;;;-4.92;99.40;97966.38;4975643;28;20251;-36
2024/01/10 04:03:12;;;;;;;13.25;6.05;;;-3.60;99.90;;;-4.89;100.00;97966.50;4969237;28;20031;-36
2024/01/10 04:05:38;;;;;;;13.88;6.50;;;-3.60;99.90;;;-4.88;100.00;97968.25;4968816;28;20038;-36
2024/01/10 04:08:04;;;;;;;14.50;6.45;;;-3.70;99.90;;;-4.83;100.00;97974.44;4974012;28;20280;-36
2024/01/10 04:10:30;;;;;;;11.88;6.13;;;-3.60;99.90;;;-4.90;100.00;97954.47;4965814;28;20057;-36
2024/01/10 04:12:55;;;;;;;15.70;6.45;;;-3.60;99.90;;;-4.84;100.00;97980.41;4967953;28;20048;-36
2024/01/10 04:15:21;;;;;;;16.65;6.07;;;-3.60;99.90;;;-5.03;100.00;97947.16;4962958;28;20376;-36
2024/01/10 04:17:47;;;;;;;16.75;6.70;;;-3.60;99.90;;;-4.88;100.00;97975.97;4968138;28;20577;-36
2024/01/10 04:20:13;;;;;;;10.85;5.70;;;-3.60;99.90;;;-4.86;100.00;97978.59;4969752;28;20399;-36
2024/01/10 04:22:38;;;;;;;14.77;5.70;;;-3.60;99.90;;;-4.86;100.00;97974.31;4969572;28;20018;-36
2024/01/10 04:25:07;;;;;;;17.25;6.80;;;-3.60;99.90;;;-4.84;100.00;97979.53;4973671;28;20388;-36
2024/01/10 04:27:33;;;;;;;16.20;6.72;;;-3.60;99.90;;;-4.88;100.00;97957.06;4975089;28;20265;-36
2024/01/10 04:29:58;;;;;;;12.98;6.22;;;-3.60;99.90;;;-4.82;100.00;97962.44;4971356;28;20042;-36
2024/01/10 04:32:24;;;;;;;13.23;6.22;;;-3.50;99.90;;;-4.78;100.00;97971.13;4974670;28;21296;-36
2024/01/10 04:34:50;;;;;;;16.25;6.15;;;-3.50;99.90;;;-4.79;100.00;97962.53;4986169;28;20033;-36
2024/01/10 04:37:16;;;;;;;16.20;7.10;;;-3.50;99.90;;;-4.69;100.00;97968.84;4975417;28;20037;-36
2024/01/10 04:39:45;;;;;;;16.60;6.75;;;-3.50;99.90;;;-4.75;100.00;97958.38;4973918;28;20117;-36
2024/01/10 04:42:11;;;;;;;14.52;6.15;;;-3.50;99.90;;;-4.77;100.00;97952.28;4975873;28;20615;-36
2024/01/10 04:44:37;;;;;;;17.17;6.22;;;-3.50;99.90;;;-4.75;100.00;97964.38;4971532;28;20038;-36
2024/01/10 04:47:04;;;;;;;15.70;6.78;;;-3.50;99.90;;;-4.78;100.00;97960.84;4974812;28;20062;-36
2024/01/10 04:49:29;;;;;;;17.70;7.88;;;-3.50;99.90;;;-4.84;100.00;97951.22;4967795;28;20318;-36
2024/01/10 04:51:55;;;;;;;14.35;7.38;;;-3.50;99.90;;;-4.83;100.00;97950.38;4968407;28;20042;-36
2024/01/10 04:54:21;;;;;;;17.70;7.05;;;-3.50;99.90;;;-4.78;100.00;97940.25;4964397;28;20092;-36
2024/01/10 04:56:47;;;;;;;17.65;6.78;;;-3.50;99.90;;;-4.75;100.00;97956.66;4955034;28;20046;-36
2024/01/10 04:59:13;;;;;;;14.80;6.28;;;-3.50;99.90;;;-4.67;100.00;97959.47;4955579;28;20136;-36
2024/01/10 05:01:38;;;;;;;12.90;6.38;;;-3.50;99.90;;;-4.73;100.00;97959.28;4966936;28;20415;-36
2024/01/10 05:04:04;;;;;;;17.17;6.75;;;-3.50;99.90;;;-4.69;100.00;97962.00;4971319;28;20026;-36
2024/01/10 05:06:30;;;;;;;17.75;7.65;;;-3.50;99.90;;;-4.73;100.00;97959.28;4962516;28;20093;-36
2024/01/10 05:08:57;;;;;;;19.88;7.78;;;-3.50;99.90;;;-4.66;100.00;97962.09;4973745;28;20038;-36
2024/01/10 05:11:25;;;;;;;20.02;7.57;;;-3.40;99.90;;;-4.65;100.00;97973.25;4962134;28;20213;-36
2024/01/10 05:13:51;;;;;;;17.92;8.43;;;-3.40;99.90;;;-4.65;100.00;97975.84;4973997;28;20430;-35
2024/01/10 05:16:17;;;;;;;16.77;7.90;;;-3.40;99.90;;;-4.65;100.00;97975.84;4977910;28;20610;-36
2024/01/10 05:18:43;;;;;;;20.38;8.15;;;-3.40;99.90;;;-4.68;100.00;97978.34;4962417;28;20058;-36
2024/01/10 05:21:09;;;;;;;15.93;7.35;;;-3.40;99.90;;;-4.71;100.00;97975.66;4969059;28;20521;-36
2024/01/10 05:23:35;;;;;;;17.40;7.72;;;-3.50;99.90;;;-4.70;100.00;97974.81;4968941;28;20057;-36
2024/01/10 05:26:01;;;;;;;18.50;7.80;;;-3.50;99.90;;;-4.81;100.00;97972.78;4971030;28;20030;-37
2024/01/10 05:28:26;;;;;;;17.27;7.13;;;-3.50;99.90;;;-4.78;100.00;97973.69;4977755;28;20034;-37
2024/01/10 05:30:53;;;;;;;18.75;7.97;;;-3.60;99.90;;;-4.90;100.00;97956.16;4974512;28;20494;-36
2024/01/10 05:33:20;;;;;;;20.83;8.23;;;-3.60;99.90;;;-4.90;100.00;97975.06;4980042;28;20034;-36
2024/01/10 05:35:45;;;;;;;18.17;7.78;;;-3.60;99.90;;;-4.97;100.00;97978.25;4967155;28;20030;-37
2024/01/10 05:38:11;;;;;;;18.65;7.75;;;-3.70;99.90;;;-5.08;100.00;97959.88;4979469;28;20057;-36
2024/01/10 05:40:37;;;;;;;21.60;8.63;;;-3.80;99.90;;;-5.06;100.00;97970.19;4974529;28;20078;-36
2024/01/10 05:43:03;;;;;;;18.33;8.35;;;-3.80;99.90;;;-5.12;100.00;97967.44;4977231;28;20033;-36
2024/01/10 05:45:28;;;;;;;19.75;8.32;;;-3.80;99.90;;;-5.09;100.00;97973.56;4974785;28;20866;-37
2024/01/10 05:47:54;;;;;;;14.95;7.68;;;-3.90;99.90;;;-5.11;100.00;97969.19;4976839;28;20467;-36
2024/01/10 05:50:20;;;;;;;19.75;8.02;;;-3.90;99.90;;;-5.16;100.00;97968.16;4974280;28;20561;-37
2024/01/10 05:52:47;;;;;;;16.52;7.00;;;-3.90;99.90;;;-5.20;100.00;97969.75;4974806;28;20081;-37
2024/01/10 05:55:13;;;;;;;21.23;8.55;;;-3.90;99.90;;;-5.27;100.00;97971.22;4989177;28;20464;-36
2024/01/10 05:57:39;;;;;;;19.25;7.13;;;-4.00;99.90;;;-5.30;100.00;97981.41;4975197;28;20129;-36
2024/01/10 06:00:09;;;;;;;18.08;7.78;;;-4.10;99.90;;;-5.40;100.00;97971.63;4976784;28;20295;-36
2024/01/10 06:02:39;;;;;;;21.85;7.85;;;-4.10;99.90;;;-5.35;100.00;97972.66;4971619;28;20095;-36
2024/01/10 06:05:11;;;;;;;15.55;7.35;;;-4.10;99.90;;;-5.42;100.00;97975.84;4977494;28;20084;-36
2024/01/10 06:07:38;;;;;;;15.85;7.53;;;-4.10;99.90;;;-5.47;100.00;97967.97;4977623;28;20118;-36
2024/01/10 06:10:05;;;;;;;21.75;8.00;;;-4.10;99.90;;;-5.45;100.00;97961.19;4978536;28;20030;-37
2024/01/10 06:12:31;;;;;;;19.52;8.40;;;-4.10;99.90;;;-5.40;100.00;97979.31;4977297;28;20900;-36
2024/01/10 06:14:57;;;;;;;16.58;7.47;;;-4.10;99.90;;;-5.42;100.00;97960.41;4976601;28;20081;-37
2024/01/10 06:17:23;;;;;;;17.17;7.28;;;-4.10;99.90;;;-5.38;100.00;97963.16;4979569;28;20467;-36
2024/01/10 06:19:50;;;;;;;21.23;8.38;;;-4.10;99.90;;;-5.37;100.00;97964.03;4973217;28;21538;-36
2024/01/10 06:22:16;;;;;;;20.27;8.07;;;-4.10;99.90;;;-5.36;100.00;97976.06;4976390;28;20074;-36
2024/01/10 06:24:43;;;;;;;18.20;7.93;;;-4.10;99.90;;;-5.33;100.00;97983.88;4968000;28;20034;-36
2024/01/10 06:27:09;;;;;;;19.73;8.65;;;-4.10;99.90;;;-5.38;100.00;97977.72;4973005;28;20026;-36
2024/01/10 06:29:36;;;;;;;20.63;8.10;;;-4.10;99.90;;;-5.43;100.00;97963.81;4972985;28;20034;-37
2024/01/10 06:32:03;;;;;;;17.88;7.95;;;-4.20;99.90;;;-5.51;100.00;97981.53;4963565;28;20026;-36
2024/01/10 06:34:29;;;;;;;20.23;9.07;;;-4.20;99.90;;;-5.62;100.00;97973.44;4969455;28;20034;-36
2024/01/10 06:36:55;;;;;;;17.42;8.93;;;-4.30;99.90;;;-5.59;100.00;97978.69;4970173;28;20030;-36
2024/01/10 06:39:20;;;;;;;20.17;8.75;;;-4.30;99.90;;;-5.66;100.00;97978.41;4971250;28;20034;-36
2024/01/10 06:41:50;;;;;;;18.70;7.47;;;-4.40;99.90;;;-5.68;100.00;97978.38;4968702;28;20030;-36
2024/01/10 06:44:19;;;;;;;18.52;8.30;;;-4.40;99.90;;;-5.66;100.00;97992.13;4975175;28;20169;-36
2024/01/10 06:46:45;;;;;;;19.63;8.50;;;-4.40;99.90;;;-5.70;100.00;97992.84;4972507;28;20030;-36
2024/01/10 06:49:11;;;;;;;20.50;8.38;;;-4.50;99.90;;;-5.80;100.00;97978.78;4971005;28;20061;-36
2024/01/10 06:51:37;;;;;;;16.85;7.88;;;-4.50;99.90;;;-5.84;100.00;97989.78;4969189;28;20037;-36
2024/01/10 06:54:03;;;;;;;14.50;7.15;;;-4.50;99.90;;;-5.82;100.00;97990.69;4975831;28;20427;-37
2024/01/10 06:56:33;;;;;;;16.25;7.82;;;-4.60;99.90;;;-5.84;100.00;97991.47;4969713;28;20426;-36
2024/01/10 06:59:00;;;;;;;19.35;8.13;;;-4.60;99.90;;;-5.87;100.00;97996.50;4968713;28;20022;-36
2024/01/10 07:01:26;;;;;;;18.55;7.93;;;-4.60;99.90;;;-5.98;100.00;97973.88;4972677;28;20049;-36
2024/01/10 07:03:56;;;;;;;16.90;8.23;;;-4.70;99.90;;;-5.92;100.00;97988.63;4963773;28;20034;-37
2024/01/10 07:06:22;;;;;;;18.23;8.23;;;-4.70;99.90;;;-5.91;100.00;97994.63;4964124;28;20030;-37
2024/01/10 07:08:50;;;;;;;19.20;8.30;;;-4.70;99.90;;;-5.95;100.00;97989.38;4963169;28;20929;-36
2024/01/10 07:11:19;;;;;;;20.02;8.13;;;-4.70;99.90;;;-5.98;100.00;97993.56;4972286;28;20039;-37
2024/01/10 07:13:45;;;;;;;20.83;7.72;;;-4.80;99.90;;;-6.13;100.00;97981.03;4973819;28;20121;-37
2024/01/10 07:16:14;;;;;;;20.02;8.05;;;-4.80;99.90;;;-6.07;100.00;97994.06;4977596;28;20060;-37
2024/01/10 07:18:41;;;;;;;17.63;7.18;;;-4.80;99.90;;;-6.12;100.00;98003.28;4978193;28;20189;-36
2024/01/10 07:21:09;;;;;;;19.02;8.38;;;-4.90;99.90;;;-6.13;100.00;98003.25;4978067;28;20030;-36
2024/01/10 07:23:35;;;;;;;21.05;7.63;;;-4.90;99.90;;;-6.21;100.00;98003.84;4974530;28;20124;-37
2024/01/10 07:26:01;;;;;;;22.45;9.23;;;-4.90;99.90;;;-6.23;100.00;98013.16;4977559;28;20403;-36
2024/01/10 07:28:26;;;;;;;20.50;8.60;;;-5.00;99.90;;;-6.29;100.00;98002.66;4979383;28;20038;-37
2024/01/10 07:30:52;;;;;;;19.98;8.07;;;-5.00;99.90;;;-6.22;100.00;98016.63;4977353;28;20045;-36
2024/01/10 07:33:18;;;;;;;22.42;8.65;;;-5.00;99.90;;;-6.25;100.00;98001.97;4970284;28;20353;-36
2024/01/10 07:35:43;;;;;;;20.65;8.88;;;-5.00;99.90;;;-6.24;100.00;98013.13;4972173;28;20042;-36
2024/01/10 07:38:09;;;;;;;19.23;8.23;;;-5.00;99.90;;;-6.38;100.00;97992.91;4972594;28;20042;-37
2024/01/10 07:40:36;;;;;;;20.55;8.43;;;-5.00;99.90;;;-6.30;100.00;98002.59;4961149;28;20045;-36
2024/01/10 07:43:02;;;;;;;19.90;8.30;;;-5.00;99.90;;;-6.24;100.00;98018.25;4969806;28;20081;-35
2024/01/10 07:45:27;;;;;;;19.38;8.68;;;-5.00;99.90;;;-6.28;100.00;98018.94;4969304;28;20107;-36
2024/01/10 07:47:54;;;;;;;19.85;8.95;;;-5.00;99.90;;;-6.29;100.00;98022.34;4974124;28;20377;-36
2024/01/10 07:50:20;;;;;;;18.70;7.75;;;-5.00;99.90;;;-6.17;100.00;98031.38;4974087;28;20033;-36
2024/01/10 07:52:46;;;;;;;16.42;7.60;;;-4.90;99.90;;;-6.07;100.00;98036.88;4965171;28;20034;-36
2024/01/10 07:55:12;;;;;;;23.67;9.15;;;-4.80;99.90;;;-5.99;100.00;98036.34;4970259;28;20069;-36
2024/01/10 07:57:38;;;;;;;19.85;9.10;;;-4.80;99.90;;;-6.00;100.00;98008.91;4958887;28;21126;-36
2024/01/10 08:00:10;;;;;;;21.02;8.05;;;-4.60;99.90;;;-5.83;100.00;98021.47;4965164;28;20521;-36
2024/01/10 08:02:36;;;;;;;19.35;8.55;;;-4.50;99.90;;;-5.71;100.00;98023.63;4968060;28;20116;-36
2024/01/10 08:05:09;;;;;;;18.23;7.50;;;-4.40;99.90;;;-5.52;100.00;98032.91;4970226;28;20310;-36
2024/01/10 08:07:39;;;;;;;18.10;7.88;;;-4.30;99.90;;;-5.40;100.00;98035.88;4967611;28;20062;-36
2024/01/10 08:10:09;;;;;;;20.98;8.48;;;-4.20;99.90;;;-5.30;100.00;98043.13;4973836;28;20030;-36
2024/01/10 08:12:41;;;;;;;20.20;8.60;;;-4.10;99.90;;;-5.19;100.00;98044.41;4971484;28;23656;-36
2024/01/10 08:15:07;;;;;;;;;;;-3.90;99.90;;;-5.29;100.00;98019.16;4971130;28;20030;-36
2024/01/10 08:17:34;;;;;;;19.95;7.85;;;-3.90;99.90;;;-5.03;100.00;98044.91;4972764;28;19979;-36
2024/01/10 08:20:03;;;;;;;20.38;8.30;;;-3.70;99.90;;;-4.89;100.00;98051.41;4970781;28;20418;-35
2024/01/10 08:22:29;;;;;;;19.52;9.00;;;-3.70;99.90;;;-4.75;100.00;98043.28;4975429;28;20384;-35
2024/01/10 08:24:55;;;;;;;22.95;9.75;;;-3.60;99.90;;;-4.67;100.00;98047.84;4972490;28;20177;-35
2024/01/10 08:27:21;;;;;;;22.45;9.13;;;-3.50;99.90;;;-4.56;100.00;98052.50;4993709;28;20047;-35
2024/01/10 08:29:47;;;;;;;15.02;8.10;;;-3.40;99.90;;;-4.50;100.00;98055.28;4970777;28;20053;-36
2024/01/10 08:32:13;;;;;;;17.52;8.25;;;-3.30;99.90;;;-4.55;100.00;98037.09;4974433;28;20026;-35
2024/01/10 08:34:38;;;;;;;22.67;9.20;;;-3.20;99.90;;;-4.52;100.00;98016.59;4969633;28;20486;-36
2024/01/10 08:37:04;;;;;;;22.23;9.13;;;-3.10;99.90;;;-4.25;100.00;98049.22;4973076;28;20054;-36
2024/01/10 08:39:30;;;;;;;21.90;9.55;;;-3.00;99.90;;;-4.08;100.00;98062.63;4975590;28;20566;-37
2024/01/10 08:41:57;;;;;;;18.67;8.98;;;-2.90;99.90;;;-4.02;100.00;98052.50;4976291;28;20242;-37
2024/01/10 08:44:22;;;;;;;19.50;9.32;;;-2.70;99.90;;;-3.93;100.00;98055.38;4977100;28;20372;-36
2024/01/10 08:46:50;;;;;;;20.35;9.02;;;-2.70;99.90;;;-3.80;100.00;98073.75;4974145;28;20037;-36
2024/01/10 08:49:17;;;;;;;18.27;8.43;;;-2.60;99.90;;;-3.75;100.00;98078.25;4975425;28;20039;-37
2024/01/10 08:51:43;;;;;;;20.00;9.07;;;-2.60;99.90;;;-3.74;100.00;98069.69;4976641;28;20045;-36
2024/01/10 08:54:09;;;;;;;22.63;9.82;;;-2.50;99.90;;;-3.81;100.00;98072.91;4977033;28;20058;-37
2024/01/10 08:56:35;;;;;;;23.67;9.85;;;-2.60;99.90;;;-3.81;100.00;98074.59;4973273;28;20088;-37
2024/01/10 08:59:01;;;;;;;23.55;10.40;;;-2.60;99.90;;;-3.92;100.00;98067.41;4977504;28;20034;-36
2024/01/10 09:01:27;;;;;;;23.00;10.10;;;-2.70;99.90;;;-4.01;100.00;98071.41;4980172;28;20411;-37
2024/01/10 09:03:52;;;;;;;23.48;10.13;;;-2.80;99.90;;;-4.01;100.00;98081.72;4971353;28;20481;-36
2024/01/10 09:06:18;;;;;;;25.50;10.02;;;-2.80;99.90;;;-4.03;100.00;98077.38;4971930;28;20108;-37
2024/01/10 09:08:44;;;;;;;26.35;10.35;;;-2.80;99.90;;;-4.11;100.00;98078.88;4972240;28;20089;-37
2024/01/10 09:11:09;;;;;;;22.88;10.55;;;-2.90;99.90;;;-4.14;100.00;98081.34;4976039;28;20245;-36
2024/01/10 09:13:37;;;;;;;23.00;10.43;;;-2.90;99.90;;;-4.14;100.00;98083.91;4976817;28;20652;-37
2024/01/10 09:16:04;;;;;;;23.63;11.20;;;-2.90;99.90;;;-4.17;100.00;98081.22;4971686;28;20373;-37
2024/01/10 09:18:29;;;;;;;23.40;10.82;;;-2.90;99.90;;;-4.17;100.00;98081.22;4976509;28;20038;-37
2024/01/10 09:20:55;;;;;;;25.08;10.45;;;-2.90;99.90;;;-4.35;100.00;98063.47;4971876;28;20229;-36
2024/01/10 09:23:21;;;;;;;24.33;10.82;;;-2.90;99.90;;;-4.20;100.00;98088.84;4977998;28;20442;-36
2024/01/10 09:25:46;;;;;;;22.40;10.82;;;-3.00;99.90;;;-4.18;100.00;98076.94;4973243;28;20088;-36
2024/01/10 09:28:12;;;;;;;25.00;10.70;;;-2.90;99.90;;;-4.16;100.00;98088.16;4975040;28;20053;-36
2024/01/10 09:30:39;;;;;;;21.23;9.98;;;-2.90;99.90;;;-4.17;100.00;98091.53;4973471;28;20034;-36
2024/01/10 09:33:04;;;;;;;22.65;10.07;;;-3.00;99.90;;;-4.19;100.00;98085.47;4977006;28;20037;-37
2024/01/10 09:35:30;;;;;;;21.40;9.88;;;-2.90;99.90;;;-4.15;100.00;98083.84;4969176;28;20262;-36
2024/01/10 09:37:56;;;;;;;21.80;9.60;;;-2.90;99.90;;;-4.10;100.00;98084.88;4975207;28;20597;-37
2024/01/10 09:40:22;;;;;;;21.77;11.02;;;-2.90;99.90;;;-4.11;100.00;98086.59;4970499;28;20031;-37
2024/01/10 09:42:54;;;;;;;24.02;10.57;;;-2.80;99.90;;;-4.11;100.00;98080.53;4970141;28;20446;-37
2024/01/10 09:45:21;;;;;;;28.70;11.38;;;-2.80;99.90;;;-4.07;100.00;98083.28;4976791;28;20033;-36
2024/01/10 09:47:52;;;;;;;24.33;11.15;;;-2.70;99.90;;;-4.08;100.00;98089.25;4967418;28;20022;-36
2024/01/10 09:50:18;;;;;;;29.48;12.02;;;-2.70;99.90;;;-3.89;100.00;98102.72;4989819;28;20497;-36
2024/01/10 09:52:58;;;;;;;28.85;11.95;;;-2.70;99.90;;;-3.89;100.00;98100.16;4975619;28;23471;-36
2024/01/10 09:55:26;;;;;;;28.77;10.68;;;-2.70;99.90;;;-3.91;100.00;98088.91;4974075;28;20026;-36
2024/01/10 09:57:52;;;;;;;23.65;10.88;;;-2.60;99.90;;;-3.82;100.00;98096.94;4971035;28;20030;-36
2024/01/10 10:00:18;;;;;;;23.83;10.77;;;-2.60;99.90;;;-3.78;100.00;98098.78;4977688;28;20037;-36
2024/01/10 10:02:47;;;;;;;26.45;10.70;;;-2.60;99.90;;;-3.78;100.00;98085.03;4959303;28;20116;-37